Time;durP1;ratioP1;P1;durP2;ratioP2;P2;SDS_P1;SDS_P2;PMS_P1;PMS_P2;Temp;Humidity;BMP_temperature;BMP_pressure;BME280_temperature;BME280_humidity;BME280_pressure;Samples;Min_cycle;Max_cycle;Signal;HPM_P1;HPM_P2
2022/01/07 00:00:46;;;;;;;8.13;2.63;;;;;;;3.60;100.00;101472.28;5265881;28;20020;-73
2022/01/07 00:03:18;;;;;;;7.70;1.95;;;;;;;3.63;100.00;101466.75;5266645;28;20035;-73
2022/01/07 00:05:49;;;;;;;7.78;3.47;;;;;;;3.61;100.00;101455.38;5280024;28;20411;-73
2022/01/07 00:08:19;;;;;;;11.98;2.63;;;;;;;3.58;100.00;101445.00;5268327;28;20035;-73
2022/01/07 00:10:50;;;;;;;8.82;2.53;;;;;;;3.59;100.00;101455.50;5271927;28;20054;-73
2022/01/07 00:13:21;;;;;;;11.15;2.38;;;;;;;3.62;100.00;101455.31;5273932;28;20461;-73
2022/01/07 00:15:53;;;;;;;9.00;2.70;;;;;;;3.61;100.00;101442.13;5265970;28;20020;-73
2022/01/07 00:18:24;;;;;;;11.52;2.65;;;;;;;3.63;100.00;101450.84;5281121;28;20030;-73
2022/01/07 00:20:55;;;;;;;7.72;2.65;;;;;;;3.62;100.00;101431.41;5287131;28;20024;-73
2022/01/07 00:23:25;;;;;;;9.45;2.67;;;;;;;3.66;100.00;101436.50;5273114;28;20024;-73
2022/01/07 00:25:56;;;;;;;7.88;2.85;;;;;;;3.62;100.00;101435.88;5276103;28;20024;-73
2022/01/07 00:28:26;;;;;;;14.02;2.55;;;;;;;3.63;100.00;101419.84;5283663;28;20072;-73
2022/01/07 00:30:57;;;;;;;10.80;2.50;;;;;;;3.66;100.00;101420.56;5274943;28;20104;-73
2022/01/07 00:33:27;;;;;;;5.60;2.33;;;;;;;3.63;100.00;101425.16;5279219;28;20024;-72
2022/01/07 00:35:59;;;;;;;8.50;2.17;;;;;;;3.70;100.00;101419.41;5267860;28;20016;-73
2022/01/07 00:38:30;;;;;;;6.18;2.17;;;;;;;3.69;100.00;101415.91;5278839;28;20077;-73
2022/01/07 00:41:00;;;;;;;7.45;2.33;;;;;;;3.68;100.00;101411.56;5268720;28;20024;-73
2022/01/07 00:43:31;;;;;;;8.57;2.33;;;;;;;3.66;100.00;101407.31;5279235;27;20031;-72
2022/01/07 00:46:02;;;;;;;5.03;2.17;;;;;;;3.69;100.00;101402.63;5265220;28;20020;-73
2022/01/07 00:48:32;;;;;;;5.30;2.05;;;;;;;3.70;100.00;101399.03;5274368;28;20066;-73
2022/01/07 00:51:02;;;;;;;12.88;2.35;;;;;;;3.72;100.00;101388.31;5283816;28;20051;-72
2022/01/07 00:53:33;;;;;;;12.85;2.20;;;;;;;3.71;100.00;101382.13;5275919;28;20092;-73
2022/01/07 00:56:04;;;;;;;7.03;1.90;;;;;;;3.72;100.00;101375.91;5272303;28;20496;-73
2022/01/07 00:58:34;;;;;;;10.57;2.40;;;;;;;3.79;100.00;101371.00;5286309;28;20027;-73
2022/01/07 01:01:05;;;;;;;12.30;2.28;;;;;;;3.77;100.00;101373.75;5266906;28;20492;-73
2022/01/07 01:03:36;;;;;;;8.45;2.65;;;;;;;3.77;100.00;101372.91;5265444;28;20020;-73
2022/01/07 01:06:06;;;;;;;8.43;2.13;;;;;;;3.80;100.00;101362.91;5278694;28;20127;-73
2022/01/07 01:08:37;;;;;;;8.13;2.15;;;;;;;3.84;100.00;101361.75;5281418;28;20449;-73
2022/01/07 01:11:07;;;;;;;5.93;2.05;;;;;;;3.88;100.00;101362.38;5275129;28;20027;-73
2022/01/07 01:13:38;;;;;;;5.75;2.20;;;;;;;3.90;100.00;101355.97;5284949;28;20133;-74
2022/01/07 01:16:08;;;;;;;8.90;2.00;;;;;;;3.91;100.00;101364.78;5273394;28;20023;-74
2022/01/07 01:18:39;;;;;;;11.48;1.85;;;;;;;3.94;100.00;101361.09;5285713;28;20572;-73
2022/01/07 01:21:09;;;;;;;10.20;2.45;;;;;;;3.97;100.00;101368.84;5286008;28;20111;-73
2022/01/07 01:23:44;;;;;;;11.48;2.50;;;;;;;3.96;100.00;101359.16;5285675;28;20122;-73
2022/01/07 01:26:16;;;;;;;8.32;2.13;;;;;;;3.92;100.00;101350.59;5285146;28;20062;-73
2022/01/07 01:28:46;;;;;;;16.13;2.70;;;;;;;3.89;100.00;101356.94;5278543;27;20473;-74
2022/01/07 01:31:18;;;;;;;9.27;2.88;;;;;;;3.92;100.00;101350.59;5265043;28;20031;-73
2022/01/07 01:33:48;;;;;;;10.52;2.55;;;;;;;3.92;100.00;101344.44;5277419;28;20020;-73
2022/01/07 01:36:19;;;;;;;7.90;2.55;;;;;;;3.94;100.00;101353.13;5277863;28;20110;-73
2022/01/07 01:38:50;;;;;;;7.85;2.63;;;;;;;3.92;100.00;101328.50;5275517;28;20027;-73
2022/01/07 01:41:20;;;;;;;9.07;2.85;;;;;;;3.85;100.00;101339.53;5280126;28;20607;-73
2022/01/07 01:43:51;;;;;;;11.18;2.40;;;;;;;3.88;100.00;101327.88;5274084;28;20020;-73
2022/01/07 01:46:22;;;;;;;7.93;3.20;;;;;;;3.82;100.00;101336.28;5277417;28;20396;-73
2022/01/07 01:48:52;;;;;;;8.13;2.83;;;;;;;3.78;100.00;101330.34;5276578;28;20409;-73
2022/01/07 01:51:23;;;;;;;9.85;2.90;;;;;;;3.69;100.00;101320.38;5271053;28;20302;-74
2022/01/07 01:53:54;;;;;;;7.90;2.92;;;;;;;3.67;100.00;101326.78;5271668;28;20045;-74
2022/01/07 01:56:24;;;;;;;10.18;2.92;;;;;;;3.58;100.00;101321.16;5277317;28;20020;-73
2022/01/07 01:58:55;;;;;;;11.60;2.78;;;;;;;3.58;100.00;101325.63;5278254;28;20022;-74
2022/01/07 02:01:25;;;;;;;16.40;4.65;;;;;;;3.48;100.00;101316.63;5285427;27;20023;-73
2022/01/07 02:03:56;;;;;;;10.25;3.10;;;;;;;3.45;100.00;101314.16;5267999;28;20149;-74
2022/01/07 02:06:31;;;;;;;9.25;3.60;;;;;;;3.33;100.00;101315.91;5274401;28;20034;-74
2022/01/07 02:09:02;;;;;;;14.43;3.30;;;;;;;3.30;100.00;101313.44;5280816;28;20020;-74
2022/01/07 02:11:51;;;;;;;14.70;3.90;;;;;;;3.25;100.00;101316.41;5277576;28;20024;-74
2022/01/07 02:14:22;;;;;;;12.70;3.63;;;;;;;3.14;100.00;101311.03;5262432;28;20020;-74
2022/01/07 02:16:52;;;;;;;17.17;3.45;;;;;;;3.11;100.00;101304.16;5264113;28;20049;-74
2022/01/07 02:19:23;;;;;;;13.98;3.83;;;;;;;3.10;100.00;101294.47;5263827;28;20294;-74
2022/01/07 02:21:53;;;;;;;15.43;4.72;;;;;;;3.10;100.00;101285.69;5264095;28;20530;-74
2022/01/07 02:24:45;;;;;;;18.70;3.58;;;;;;;3.06;100.00;101277.13;5263349;28;20036;-74
2022/01/07 02:27:17;;;;;;;10.40;3.45;;;;;;;3.01;100.00;101283.66;5272180;28;20016;-75
2022/01/07 02:29:49;;;;;;;9.75;3.97;;;;;;;3.04;100.00;101286.97;5269033;28;20024;-75
2022/01/07 02:32:21;;;;;;;12.90;4.20;;;;;;;3.05;100.00;101283.34;5263876;28;20043;-75
2022/01/07 02:34:51;;;;;;;11.20;3.85;;;;;;;3.05;100.00;101274.53;5264041;28;20020;-74
2022/01/07 02:37:22;;;;;;;12.73;3.85;;;;;;;2.97;100.00;101271.59;5272455;28;20056;-73
2022/01/07 02:39:54;;;;;;;9.40;4.10;;;;;;;2.92;100.00;101258.66;5282406;28;20023;-73
2022/01/07 02:42:25;;;;;;;16.95;4.55;;;;;;;2.93;100.00;101260.38;5271842;28;20028;-74
2022/01/07 02:44:56;;;;;;;14.82;4.45;;;;;;;2.91;100.00;101267.56;5276979;28;20382;-74
2022/01/07 02:47:33;;;;;;;16.23;4.45;;;;;;;2.88;100.00;101259.00;5277822;28;20019;-74
2022/01/07 02:50:05;;;;;;;13.60;4.38;;;;;;;2.79;100.00;101263.13;5275747;28;20058;-75
2022/01/07 02:52:35;;;;;;;13.70;4.82;;;;;;;2.83;100.00;101260.16;5266138;28;20028;-74
2022/01/07 02:55:07;;;;;;;13.80;4.55;;;;;;;2.81;100.00;101248.81;5283048;28;20028;-74
2022/01/07 02:57:44;;;;;;;12.65;4.95;;;;;;;2.85;100.00;101252.09;5278369;28;20277;-73
2022/01/07 03:00:17;;;;;;;9.38;4.40;;;;;;;2.79;100.00;101249.88;5262057;28;20032;-73
2022/01/07 03:02:50;;;;;;;12.90;5.15;;;;;;;2.82;100.00;101241.72;5263388;28;20040;-74
2022/01/07 03:05:21;;;;;;;12.15;4.63;;;;;;;2.82;100.00;101241.72;5277841;28;20174;-73
2022/01/07 03:07:52;;;;;;;12.43;4.15;;;;;;;2.81;100.00;101237.34;5284476;28;20087;-73
2022/01/07 03:10:26;;;;;;;12.73;4.72;;;;;;;2.85;100.00;101247.63;5270532;28;20024;-74
2022/01/07 03:13:01;;;;;;;14.67;4.63;;;;;;;2.87;100.00;101244.06;5284453;28;20051;-74
2022/01/07 03:15:37;;;;;;;6.82;4.30;;;;;;;2.87;100.00;101239.59;5265295;28;20266;-74
2022/01/07 03:18:09;;;;;;;10.98;4.30;;;;;;;2.83;100.00;101241.59;5263295;28;20103;-74
2022/01/07 03:20:40;;;;;;;8.52;5.10;;;;;;;2.89;100.00;101239.47;5262549;28;20020;-74
2022/01/07 03:23:12;;;;;;;8.85;4.43;;;;;;;2.88;100.00;101235.13;5263647;28;20036;-75
2022/01/07 03:25:44;;;;;;;14.70;4.93;;;;;;;2.88;100.00;101219.25;5284244;28;20525;-74
2022/01/07 03:28:15;;;;;;;10.50;4.70;;;;;;;2.89;100.00;101215.63;5281479;28;20024;-74
2022/01/07 03:30:46;;;;;;;12.20;4.97;;;;;;;2.89;100.00;101218.28;5263070;28;20031;-75
2022/01/07 03:33:19;;;;;;;11.00;5.07;;;;;;;2.90;100.00;101219.97;5261512;28;20053;-75
2022/01/07 03:35:50;;;;;;;8.23;4.35;;;;;;;2.94;100.00;101219.66;5272224;28;20032;-75
2022/01/07 03:38:21;;;;;;;7.70;5.22;;;;;;;2.96;100.00;101214.22;5283991;28;20339;-74
2022/01/07 03:40:51;;;;;;;8.93;4.22;;;;;;;3.00;100.00;101218.34;5283736;28;20104;-74
2022/01/07 03:43:22;;;;;;;11.15;4.35;;;;;;;3.07;100.00;101215.19;5284191;28;20458;-74
2022/01/07 03:45:53;;;;;;;10.15;4.65;;;;;;;3.00;100.00;101216.56;5283785;28;20173;-75
2022/01/07 03:48:24;;;;;;;9.40;4.60;;;;;;;3.05;100.00;101208.28;5282719;28;20118;-75
2022/01/07 03:50:54;;;;;;;8.05;4.75;;;;;;;3.05;100.00;101206.47;5281036;28;20126;-74
2022/01/07 03:53:25;;;;;;;10.43;4.80;;;;;;;3.07;100.00;101206.38;5264237;28;20054;-75
2022/01/07 03:55:55;;;;;;;12.80;5.38;;;;;;;3.10;100.00;101190.25;5263458;28;20028;-74
2022/01/07 03:58:26;;;;;;;13.13;6.22;;;;;;;3.10;100.00;101195.53;5262702;28;20066;-74
2022/01/07 04:00:56;;;;;;;8.77;4.82;;;;;;;3.15;100.00;101203.16;5262790;28;20021;-74
2022/01/07 04:03:27;;;;;;;11.13;5.05;;;;;;;3.15;100.00;101198.72;5263223;28;20020;-74
2022/01/07 04:05:57;;;;;;;16.80;7.63;;;;;;;3.21;100.00;101198.25;5262930;28;20389;-74
2022/01/07 04:08:28;;;;;;;11.30;5.25;;;;;;;3.23;100.00;101188.41;5265498;28;20020;-74
2022/01/07 04:10:58;;;;;;;9.65;5.53;;;;;;;3.20;100.00;101193.09;5266355;28;20401;-74
2022/01/07 04:13:29;;;;;;;15.02;5.68;;;;;;;3.21;100.00;101185.00;5280508;28;20034;-74
2022/01/07 04:15:59;;;;;;;11.25;6.05;;;;;;;3.22;100.00;101170.81;5266101;28;20059;-74
2022/01/07 04:18:30;;;;;;;16.20;5.13;;;;;;;3.25;100.00;101175.03;5283111;28;20028;-74
2022/01/07 04:21:00;;;;;;;13.60;5.85;;;;;;;3.29;100.00;101177.34;5277132;28;20096;-74
2022/01/07 04:23:31;;;;;;;14.95;5.82;;;;;;;3.30;100.00;101179.03;5265868;28;20591;-74
2022/01/07 04:26:02;;;;;;;14.13;5.95;;;;;;;3.26;100.00;101180.25;5265994;28;20062;-74
2022/01/07 04:28:32;;;;;;;11.65;5.07;;;;;;;3.27;100.00;101184.59;5279637;28;20516;-74
2022/01/07 04:31:03;;;;;;;13.10;5.78;;;;;;;3.33;100.00;101191.25;5266101;28;20034;-74
2022/01/07 04:33:34;;;;;;;14.75;5.43;;;;;;;3.32;100.00;101186.91;5265900;28;20519;-74
2022/01/07 04:36:04;;;;;;;11.98;5.90;;;;;;;3.33;100.00;101188.59;5276111;28;20032;-74
2022/01/07 04:38:35;;;;;;;14.63;6.03;;;;;;;3.33;100.00;101170.03;5279455;27;20106;-74
2022/01/07 04:41:05;;;;;;;14.38;6.43;;;;;;;3.36;100.00;101168.00;5270320;28;20049;-73
2022/01/07 04:43:36;;;;;;;15.35;6.28;;;;;;;3.35;100.00;101176.06;5287056;28;20377;-74
2022/01/07 04:46:06;;;;;;;17.70;6.15;;;;;;;3.35;100.00;101179.56;5286393;28;20024;-74
2022/01/07 04:48:37;;;;;;;15.85;5.95;;;;;;;3.38;100.00;101174.03;5286735;28;20027;-74
2022/01/07 04:51:08;;;;;;;14.05;5.88;;;;;;;3.46;100.00;101183.22;5286865;28;20056;-73
2022/01/07 04:53:39;;;;;;;14.10;6.28;;;;;;;3.44;100.00;101185.16;5286759;28;20396;-74
2022/01/07 04:56:09;;;;;;;12.60;6.57;;;;;;;3.47;100.00;101185.78;5266449;28;20024;-73
2022/01/07 04:58:40;;;;;;;11.65;6.45;;;;;;;3.46;100.00;101194.69;5265508;28;20032;-74
2022/01/07 05:01:10;;;;;;;19.27;6.90;;;;;;;3.53;100.00;101180.03;5265411;28;20069;-74
2022/01/07 05:03:40;;;;;;;18.05;6.45;;;;;;;3.56;100.00;101179.78;5279200;28;20023;-74
2022/01/07 05:06:43;;;;;;;18.20;6.47;;;;;;;3.54;100.00;101175.56;5285216;28;20473;-73
2022/01/07 05:09:01;;;;;;;20.08;6.82;;;;;;;3.56;100.00;101166.53;5285101;28;20024;-73
2022/01/07 05:11:32;;;;;;;13.00;6.63;;;;;;;3.58;100.00;101171.75;5265384;28;20031;-74
2022/01/07 05:14:02;;;;;;;22.58;6.53;;;;;;;3.62;100.00;101168.75;5279481;28;20032;-73
2022/01/07 05:16:33;;;;;;;19.23;6.22;;;;;;;3.61;100.00;101174.16;5278333;28;20026;-73
2022/01/07 05:19:03;;;;;;;12.88;6.68;;;;;;;3.60;100.00;101175.09;5285203;28;20027;-74
2022/01/07 05:21:34;;;;;;;15.77;6.78;;;;;;;3.62;100.00;101163.44;5271691;28;20024;-74
2022/01/07 05:24:06;;;;;;;15.30;6.05;;;;;;;3.66;100.00;101168.50;5265091;28;20038;-73
2022/01/07 05:26:36;;;;;;;17.90;6.78;;;;;;;3.71;100.00;101167.19;5267577;28;20027;-74
2022/01/07 05:29:07;;;;;;;15.35;7.38;;;;;;;3.69;100.00;101163.81;5286412;28;20027;-74
2022/01/07 05:31:37;;;;;;;14.43;7.15;;;;;;;3.70;100.00;101162.84;5268405;28;20023;-73
2022/01/07 05:34:07;;;;;;;12.90;7.43;;;;;;;3.80;100.00;101169.16;5275982;28;20480;-74
2022/01/07 05:36:38;;;;;;;19.75;7.70;;;;;;;3.78;100.00;101167.59;5274783;27;20028;-74
2022/01/07 05:39:09;;;;;;;19.10;8.10;;;;;;;3.79;100.00;101163.97;5285944;28;20023;-73
2022/01/07 05:41:39;;;;;;;19.58;8.73;;;;;;;3.82;100.00;101167.25;5285817;28;20384;-73
2022/01/07 05:44:10;;;;;;;14.85;7.57;;;;;;;3.81;100.00;101162.88;5271550;28;20418;-73
2022/01/07 05:46:40;;;;;;;14.57;7.40;;;;;;;3.80;100.00;101157.72;5272033;28;20035;-73
2022/01/07 05:49:11;;;;;;;20.70;7.22;;;;;;;3.84;100.00;101154.72;5285296;28;20020;-74
2022/01/07 05:51:41;;;;;;;18.23;7.05;;;;;;;3.89;100.00;101162.34;5276875;28;20020;-73
2022/01/07 05:54:13;;;;;;;18.63;7.78;;;;;;;3.89;100.00;101159.69;5277714;28;20020;-74
2022/01/07 05:56:43;;;;;;;15.60;6.72;;;;;;;3.90;100.00;101158.72;5264500;28;20027;-75
2022/01/07 05:59:14;;;;;;;21.58;7.47;;;;;;;3.93;100.00;101160.31;5277621;28;20028;-73
2022/01/07 06:01:44;;;;;;;14.90;6.80;;;;;;;3.93;100.00;101152.34;5264454;28;20024;-74
2022/01/07 06:04:15;;;;;;;18.23;6.78;;;;;;;3.96;100.00;101154.75;5264406;28;20034;-72
2022/01/07 06:06:45;;;;;;;19.02;7.90;;;;;;;3.95;100.00;101153.06;5264915;28;20462;-72
2022/01/07 06:09:16;;;;;;;22.15;7.45;;;;;;;3.96;100.00;101142.31;5282843;28;20020;-76
2022/01/07 06:11:46;;;;;;;20.23;7.18;;;;;;;3.94;100.00;101148.72;5262596;28;20031;-76
2022/01/07 06:14:17;;;;;;;27.58;7.38;;;;;;;3.91;100.00;101144.47;5264093;28;20063;-75
2022/01/07 06:16:47;;;;;;;16.50;7.00;;;;;;;3.95;100.00;101142.44;5278983;28;20028;-75
2022/01/07 06:19:18;;;;;;;19.50;7.35;;;;;;;3.93;100.00;101157.66;5276495;27;20080;-75
2022/01/07 06:21:48;;;;;;;20.40;7.35;;;;;;;3.95;100.00;101161.00;5266157;28;20012;-75
2022/01/07 06:24:19;;;;;;;15.93;7.20;;;;;;;3.95;100.00;101153.91;5284478;28;20247;-75
2022/01/07 06:26:49;;;;;;;14.88;6.97;;;;;;;3.98;100.00;101152.84;5271661;28;20023;-75
2022/01/07 06:29:20;;;;;;;15.50;7.13;;;;;;;4.00;100.00;101146.44;5273117;28;20016;-76
2022/01/07 06:31:50;;;;;;;14.68;6.60;;;;;;;4.00;100.00;101153.56;5277517;28;20121;-76
2022/01/07 06:34:21;;;;;;;17.35;6.32;;;;;;;4.02;100.00;101139.22;5263664;28;20016;-76
2022/01/07 06:36:51;;;;;;;28.98;10.75;;;;;;;4.05;100.00;101162.84;5272187;28;20059;-76
2022/01/07 06:39:23;;;;;;;18.80;6.70;;;;;;;4.05;100.00;101151.41;5283366;28;20464;-76
2022/01/07 06:41:54;;;;;;;17.13;6.72;;;;;;;4.04;100.00;101147.91;5277180;28;20161;-75
2022/01/07 06:44:24;;;;;;;16.63;7.05;;;;;;;4.07;100.00;101166.25;5265364;28;20536;-75
2022/01/07 06:46:55;;;;;;;23.77;7.72;;;;;;;4.11;100.00;101164.19;5284472;28;20495;-75
2022/01/07 06:49:26;;;;;;;17.17;6.80;;;;;;;4.15;100.00;101161.19;5284701;28;20030;-75
2022/01/07 06:51:57;;;;;;;18.98;6.63;;;;;;;4.18;100.00;101170.75;5284898;28;20046;-74
2022/01/07 06:54:28;;;;;;;17.55;8.25;;;;;;;4.22;100.00;101176.66;5265852;28;20441;-76
2022/01/07 06:56:58;;;;;;;16.23;7.05;;;;;;;4.28;100.00;101177.06;5263564;28;20024;-76
2022/01/07 06:59:29;;;;;;;16.67;6.75;;;;;;;4.24;100.00;101170.28;5262844;28;20051;-75
2022/01/07 07:01:59;;;;;;;17.63;6.82;;;;;;;4.27;100.00;101182.50;5263424;28;20019;-75
2022/01/07 07:04:30;;;;;;;13.48;6.75;;;;;;;4.25;100.00;101179.09;5270574;28;20499;-74
2022/01/07 07:07:00;;;;;;;16.52;6.05;;;;;;;4.33;100.00;101174.88;5272182;28;20016;-74
2022/01/07 07:09:31;;;;;;;11.73;6.00;;;;;;;4.32;100.00;101164.38;5279806;28;20031;-75
2022/01/07 07:12:02;;;;;;;15.85;7.10;;;;;;;4.33;100.00;101168.72;5263026;28;20102;-75
2022/01/07 07:14:32;;;;;;;19.17;7.05;;;;;;;4.31;100.00;101160.84;5273136;28;20104;-76
2022/01/07 07:17:03;;;;;;;15.43;6.45;;;;;;;4.28;100.00;101161.13;5284410;28;20030;-75
2022/01/07 07:19:34;;;;;;;14.60;6.35;;;;;;;4.31;100.00;101157.34;5284244;28;20043;-75
2022/01/07 07:22:04;;;;;;;21.70;6.63;;;;;;;4.33;100.00;101158.94;5284209;28;20370;-75
2022/01/07 07:24:35;;;;;;;18.58;6.55;;;;;;;4.38;100.00;101172.72;5283712;28;20031;-75
2022/01/07 07:27:05;;;;;;;15.23;6.50;;;;;;;4.32;100.00;101157.25;5270891;28;20019;-76
2022/01/07 07:29:35;;;;;;;14.70;6.28;;;;;;;4.33;100.00;101156.28;5270431;28;20049;-74
2022/01/07 07:32:10;;;;;;;21.30;6.72;;;;;;;4.32;100.00;101159.06;5276878;28;20012;-74
2022/01/07 07:37:13;;;;;;;17.55;7.10;;;;;;;4.27;100.00;101167.41;5263364;28;20027;-75
2022/01/07 07:39:43;;;;;;;15.13;5.90;;;;;;;4.26;100.00;101160.38;5266561;28;20038;-74
2022/01/07 07:42:14;;;;;;;18.15;6.35;;;;;;;4.29;100.00;101170.75;5284606;28;20473;-74
2022/01/07 07:44:45;;;;;;;15.63;6.38;;;;;;;4.33;100.00;101176.69;5282849;28;20557;-75
2022/01/07 07:47:15;;;;;;;13.63;6.38;;;;;;;4.36;100.00;101176.44;5265802;28;20385;-74
2022/01/07 07:49:46;;;;;;;15.98;6.30;;;;;;;4.41;100.00;101171.63;5286455;28;20027;-74
2022/01/07 07:52:16;;;;;;;19.30;6.43;;;;;;;4.46;100.00;101160.63;5273997;28;20024;-74
2022/01/07 07:54:47;;;;;;;9.73;4.72;;;;;;;4.50;100.00;101156.78;5280001;28;20022;-74
2022/01/07 07:57:20;;;;;;;14.60;5.50;;;;;;;4.50;100.00;101162.09;5280554;28;20393;-74
2022/01/07 07:59:50;;;;;;;12.63;5.72;;;;;;;4.51;100.00;101155.81;5268357;28;20023;-74
2022/01/07 08:02:21;;;;;;;15.20;6.55;;;;;;;4.48;100.00;101156.91;5272137;27;20046;-74
2022/01/07 08:04:51;;;;;;;12.43;5.68;;;;;;;4.50;100.00;101152.31;5283979;28;20043;-74
2022/01/07 08:07:22;;;;;;;14.18;6.32;;;;;;;4.50;100.00;101154.13;5285408;28;20028;-74
2022/01/07 08:09:53;;;;;;;14.13;5.95;;;;;;;4.51;100.00;101153.16;5284855;28;20041;-74
2022/01/07 08:12:39;;;;;;;11.27;5.30;;;;;;;4.48;100.00;101148.09;5270642;28;20027;-74
2022/01/07 08:17:58;;;;;;;21.35;6.22;;;;;;;4.46;100.00;101148.19;5288034;27;20015;-74
2022/01/07 08:20:29;;;;;;;11.77;5.13;;;;;;;4.47;100.00;101146.38;5296797;27;20027;-74
2022/01/07 08:23:00;;;;;;;13.32;5.60;;;;;;;4.47;100.00;101143.72;5302452;27;20027;-74
2022/01/07 08:25:32;;;;;;;14.30;5.85;;;;;;;4.44;100.00;101155.47;5293363;27;20106;-74
2022/01/07 08:28:04;;;;;;;11.65;5.47;;;;;;;4.49;100.00;101149.78;5289253;27;20118;-74
2022/01/07 08:30:37;;;;;;;16.08;6.32;;;;;;;4.49;100.00;101147.13;5293586;27;20056;-74
2022/01/07 08:35:57;;;;;;;19.20;6.18;;;;;;;4.48;100.00;101167.53;5287343;27;20527;-74
2022/01/07 08:38:27;;;;;;;12.52;5.63;;;;;;;4.49;100.00;101173.69;5292797;27;20023;-74
2022/01/07 08:40:58;;;;;;;13.48;6.47;;;;;;;4.43;100.00;101167.06;5285697;27;20504;-74
2022/01/07 08:43:29;;;;;;;15.60;5.55;;;;;;;4.39;100.00;101168.25;5295347;27;20059;-74
2022/01/07 08:46:00;;;;;;;11.48;4.97;;;;;;;4.38;100.00;101164.75;5296808;27;20499;-74
2022/01/07 08:48:32;;;;;;;13.13;5.50;;;;;;;4.39;100.00;101174.41;5288234;27;20092;-74
2022/01/07 08:51:04;;;;;;;16.38;5.63;;;;;;;4.44;100.00;101174.06;5295273;27;20020;-74
2022/01/07 08:53:35;;;;;;;12.18;5.80;;;;;;;4.48;100.00;101166.69;5293109;27;20023;-74
2022/01/07 08:56:07;;;;;;;14.10;5.40;;;;;;;4.53;100.00;101154.75;5295890;27;20420;-74
2022/01/07 08:58:37;;;;;;;14.45;4.68;;;;;;;4.60;100.00;101160.41;5295391;27;20023;-74
2022/01/07 09:01:08;;;;;;;10.60;4.72;;;;;;;4.68;100.00;101179.28;5297184;27;20112;-74
2022/01/07 09:03:38;;;;;;;13.77;4.57;;;;;;;4.76;100.00;101157.41;5289351;27;20223;-74
2022/01/07 09:06:08;;;;;;;16.63;5.15;;;;;;;4.84;100.00;101163.81;5296096;27;20046;-74
2022/01/07 09:08:39;;;;;;;8.32;4.30;;;;;;;4.89;100.00;101166.94;5292956;27;20023;-74
2022/01/07 09:11:10;;;;;;;9.68;4.25;;;;;;;5.00;100.00;101160.75;5292489;27;20054;-74
2022/01/07 09:13:42;;;;;;;11.38;3.97;;;;;;;4.96;100.00;101154.00;5287297;27;20110;-74
2022/01/07 09:16:12;;;;;;;13.70;3.85;;;;;;;4.94;100.00;101151.47;5290974;27;20038;-74
2022/01/07 09:18:42;;;;;;;7.90;3.88;;;;;;;4.96;100.00;101151.34;5289536;27;20050;-74
2022/01/07 09:21:13;;;;;;;9.05;3.83;;;;;;;4.97;100.00;101157.50;5291488;27;20031;-74
2022/01/07 09:23:44;;;;;;;9.10;3.97;;;;;;;4.99;100.00;101168.88;5295588;27;20438;-74
2022/01/07 09:26:14;;;;;;;13.35;5.85;;;;;;;5.04;100.00;101156.91;5292270;27;20076;-74
2022/01/07 09:28:45;;;;;;;10.93;4.18;;;;;;;5.05;100.00;101168.38;5292423;27;20047;-74
2022/01/07 09:31:17;;;;;;;7.70;3.33;;;;;;;5.02;100.00;101168.63;5293463;27;20410;-74
2022/01/07 09:33:47;;;;;;;10.07;4.50;;;;;;;5.07;100.00;101169.09;5287448;27;20061;-74
2022/01/07 09:36:18;;;;;;;13.73;4.03;;;;;;;4.95;100.00;101162.94;5291651;27;20038;-74
2022/01/07 09:38:49;;;;;;;9.52;3.70;;;;;;;4.94;100.00;101151.47;5281941;27;20430;-74
2022/01/07 09:41:20;;;;;;;9.95;3.72;;;;;;;5.05;100.00;101160.41;5291320;27;20041;-74
2022/01/07 09:43:51;;;;;;;13.18;3.47;;;;;;;4.98;100.00;101162.72;5291512;27;20019;-74
2022/01/07 09:46:22;;;;;;;11.38;3.88;;;;;;;4.94;100.00;101167.41;5285734;27;20415;-74
2022/01/07 09:48:53;;;;;;;8.98;3.45;;;;;;;5.06;100.00;101162.94;5287468;27;20019;-74
2022/01/07 09:51:26;;;;;;;13.02;3.42;;;;;;;5.14;100.00;101162.31;5289726;27;20026;-74
2022/01/07 09:53:59;;;;;;;8.93;3.83;;;;;;;5.17;100.00;101162.06;5296270;27;20019;-74
2022/01/07 09:56:30;;;;;;;9.18;3.55;;;;;;;5.16;100.00;101160.38;5294826;27;20388;-74
2022/01/07 09:59:04;;;;;;;10.23;3.67;;;;;;;5.18;100.00;101153.97;5289735;27;20023;-74
2022/01/07 10:02:09;;;;;;;12.55;3.70;;;;;;;5.26;100.00;101137.38;5289882;27;20483;-74
2022/01/07 10:04:41;;;;;;;13.07;3.35;;;;;;;5.32;100.00;101144.88;5293922;27;20039;-74
2022/01/07 10:07:13;;;;;;;9.77;4.70;;;;;;;5.26;100.00;101137.38;5286729;27;20118;-74
2022/01/07 10:10:17;;;;;;;13.88;4.28;;;;;;;5.30;100.00;101135.31;5293785;27;20034;-74
2022/01/07 10:12:52;;;;;;;18.63;6.93;;;;;;;5.24;100.00;101134.00;5291999;27;20088;-74
2022/01/07 10:15:25;;;;;;;12.45;4.93;;;;;;;5.21;100.00;101126.28;5284709;27;20032;-74
2022/01/07 10:18:16;;;;;;;105.70;34.88;;;;;;;5.20;100.00;101119.28;5293467;27;20464;-74
2022/01/07 10:20:48;;;;;;;67.10;29.13;;;;;;;5.43;100.00;101125.38;5283375;27;20365;-74
2022/01/07 10:26:13;;;;;;;15.65;4.60;;;;;;;5.56;100.00;101126.03;5292812;27;20430;-74
2022/01/07 10:28:45;;;;;;;13.18;3.83;;;;;;;5.58;100.00;101116.13;5292511;27;20092;-74
2022/01/07 10:31:34;;;;;;;20.83;4.38;;;;;;;5.78;100.00;101121.63;5292705;27;20101;-74
2022/01/07 10:34:05;;;;;;;10.00;3.92;;;;;;;5.82;100.00;101118.53;5292610;27;20105;-74
2022/01/07 10:36:38;;;;;;;13.23;4.45;;;;;;;5.86;100.00;101122.63;5291863;27;20606;-74
2022/01/07 10:39:09;;;;;;;15.43;3.90;;;;;;;5.90;100.00;101126.72;5285286;27;20114;-74
2022/01/07 10:41:58;;;;;;;11.88;4.45;;;;;;;5.85;100.00;101118.28;5295734;27;20019;-74
2022/01/07 10:44:29;;;;;;;13.65;4.18;;;;;;;5.85;100.00;101114.78;5285018;27;20031;-74
2022/01/07 10:47:08;;;;;;;18.58;5.47;;;;;;;5.99;100.00;101113.66;5290511;27;20023;-74
2022/01/07 10:49:38;;;;;;;14.68;4.97;;;;;;;6.06;100.00;101110.31;5293397;27;20054;-74
2022/01/07 10:52:21;;;;;;;13.48;3.60;;;;;;;6.05;100.00;101110.47;5296068;27;20064;-74
2022/01/07 10:55:12;;;;;;;15.23;3.97;;;;;;;6.13;100.00;101116.84;5292561;27;20464;-74
2022/01/07 10:57:44;;;;;;;11.93;3.75;;;;;;;6.19;100.00;101110.97;5283912;27;20068;-74
2022/01/07 11:00:17;;;;;;;15.60;5.30;;;;;;;6.15;100.00;101109.56;5291929;27;20372;-74
2022/01/07 11:02:48;;;;;;;12.35;3.95;;;;;;;6.07;100.00;101124.50;5292793;28;20038;-74
2022/01/07 11:05:18;;;;;;;14.43;3.50;;;;;;;5.98;100.00;101123.47;5290068;28;20549;-74
2022/01/07 11:07:49;;;;;;;8.40;3.78;;;;;;;5.86;100.00;101114.66;5288535;28;20022;-74
2022/01/07 11:10:19;;;;;;;11.63;4.68;;;;;;;5.84;100.00;101113.09;5282194;28;20015;-74
2022/01/07 11:12:50;;;;;;;13.55;3.65;;;;;;;5.81;100.00;101116.00;5296797;27;20073;-74
2022/01/07 11:15:20;;;;;;;18.50;4.40;;;;;;;5.81;100.00;101116.00;5288745;28;20031;-74
2022/01/07 11:17:51;;;;;;;11.55;4.47;;;;;;;5.72;100.00;101120.28;5294750;27;20023;-74
2022/01/07 11:20:24;;;;;;;11.43;3.70;;;;;;;5.71;100.00;101110.59;5289415;27;20054;-74
2022/01/07 11:22:55;;;;;;;7.10;2.80;;;;;;;5.62;100.00;101116.69;5288699;27;20392;-74
2022/01/07 11:25:33;;;;;;;8.82;3.80;;;;;;;5.45;100.00;101110.97;5298200;27;20080;-74
2022/01/07 11:28:04;;;;;;;11.07;3.78;;;;;;;5.41;100.00;101117.50;5301359;27;20043;-73
2022/01/07 11:30:35;;;;;;;6.95;2.80;;;;;;;5.38;100.00;101119.59;5291049;27;21159;-74
2022/01/07 11:33:17;;;;;;;6.43;2.88;;;;;;;5.36;100.00;101122.34;5286048;27;20054;-74
2022/01/07 11:35:47;;;;;;;9.57;2.97;;;;;;;5.39;100.00;101116.78;5289067;27;20107;-74
2022/01/07 11:38:40;;;;;;;9.27;4.13;;;;;;;5.40;100.00;101118.47;5299352;27;20101;-74
2022/01/07 11:41:14;;;;;;;8.23;2.83;;;;;;;5.37;100.00;101109.91;5299552;27;20451;-74
2022/01/07 11:43:47;;;;;;;7.25;2.88;;;;;;;5.39;100.00;101116.78;5290418;27;20532;-73
2022/01/07 11:46:36;;;;;;;8.75;2.83;;;;;;;5.37;100.00;101110.78;5293919;27;20222;-74
2022/01/07 11:49:45;;;;;;;7.57;3.08;;;;;;;5.31;100.00;101113.91;5294341;27;20411;-74
2022/01/07 11:52:37;;;;;;;10.05;2.50;;;;;;;5.29;100.00;101105.22;5286809;27;20168;-74